LFLL Airport Information

Runway Information
Runway 18L Length 8760 ft width 148 ft
Elevation 780 ft Threshold 0 ft Heading 175
Runway 36R Length 8760 ft Width 148 ft
Elevation 821 ft Threshold 0 ft Heading 355
Runway 18R Length 13124 ft width 148 ft
Elevation 758 ft Threshold 0 ft Heading 175
Runway 36L Length 13124 ft Width 148 ft
Elevation 813 ft Threshold 0 ft Heading 355
Airport Frequencies
Type A/D Name Lyon appro Frequency 136.075 MHZ
Type ATIS Name ATIS Frequency 126.175 MHZ
Type GND Name GND Frequency 121.825 MHZ
Type INFO Name INFO Frequency 135.2 MHZ
Type PFLT Name PREFLIGHT Frequency 121.7 MHZ
Type TWR Name TWR Frequency 120.45 MHZ
Airport Navaids
Type VOR-DME Name Lyon/Saint Exupery Frequency 114750 KHZ
Airport Weather Information & NOTAM
ADDS - METARS form results

(1056 UTC 23 May 2019)
Data provider http://aviationweather.gov/metar/data/
 
METAR text: LFLL 231030Z 33005KT 280V360 CAVOK 20/06 Q1018 NOSIG
Conditions at: LFLL (LYON/SATOLAS , FR) observed 1030 UTC 23 May 2019
Temperature: 20.0°C (68°F)
Dewpoint: 6.0°C (43°F) [RH = 40%]
Pressure (altimeter): 30.06 inches Hg (1018.0 mb)
Winds: from the NNW (330 degrees) at 6 MPH (5 knots; 2.6 m/s)
Visibility: 6 or more miles (10+ km)
Ceiling: ceiling and visibility are OK
Clouds: unknown
Weather: no significant weather observed at this time

METAR text: LFLL 231000Z 32006KT 290V360 CAVOK 19/07 Q1018 NOSIG
Conditions at: LFLL (LYON/SATOLAS , FR) observed 1000 UTC 23 May 2019
Temperature: 19.0°C (66°F)
Dewpoint: 7.0°C (45°F) [RH = 46%]
Pressure (altimeter): 30.06 inches Hg (1018.0 mb)
Winds: from the NW (320 degrees) at 7 MPH (6 knots; 3.1 m/s)
Visibility: 6 or more miles (10+ km)
Ceiling: ceiling and visibility are OK
Clouds: unknown
Weather: no significant weather observed at this time

Forecast for: LFLL (LYON/SATOLAS , FR)
Text: TAF LFLL 230500Z 2306/2412 35005KT CAVOK
Forecast period: 0600 to 1800 UTC 23 May 2019
Forecast type: FROM: standard forecast or significant change
Winds: from the N (350 degrees) at 6 MPH (5 knots; 2.6 m/s)
Visibility: 6 or more miles 10+ km)
Ceiling: unknown
Clouds: missing
Weather: NSW  (no significant weather)
Text: BECMG 2318/2321 VRB02KT
Forecast period: 1800 UTC 23 May 2019 to 0900 UTC 24 May 2019
Forecast type: BECOMING: Conditions expected to become as follows by 2100 UTC 23 May 2019
Winds: variable direction winds at 2 MPH (2 knots; 1.0 m/s)
Visibility: 6 or more miles 10+ km)
Ceiling: unknown
Clouds: missing
Weather: NSW  (no significant weather)
Text: BECMG 2409/2412 35007KT
Forecast period: 0900 to 1200 UTC 24 May 2019
Forecast type: BECOMING: Conditions expected to become as follows by 1200 UTC 24 May 2019
Winds: from the N (350 degrees) at 8 MPH (7 knots; 3.6 m/s)
Visibility: 6 or more miles 10+ km)
Ceiling: unknown
Clouds: missing
Weather: NSW  (no significant weather)